createdAt,value
2022-11-26T00:02:23.762Z,6.33
2022-11-26T00:04:53.635Z,6.13
2022-11-26T00:07:26.173Z,6.60
2022-11-26T00:09:57.691Z,6.77
2022-11-26T00:12:28.655Z,6.97
2022-11-26T00:14:57.614Z,6.83
2022-11-26T00:17:26.495Z,7.03
2022-11-26T00:19:54.688Z,7.40
2022-11-26T00:22:26.294Z,6.73
2022-11-26T00:24:56.960Z,7.20
2022-11-26T00:27:27.629Z,7.57
2022-11-26T00:29:56.098Z,6.97
2022-11-26T00:32:26.646Z,7.33
2022-11-26T00:34:55.490Z,7.20
2022-11-26T00:37:27.359Z,8.33
2022-11-26T00:39:59.374Z,8.50
2022-11-26T00:42:28.797Z,8.80
2022-11-26T00:44:58.987Z,8.40
2022-11-26T00:47:27.488Z,8.90
2022-11-26T00:49:55.881Z,8.30
2022-11-26T00:52:29.967Z,9.27
2022-11-26T00:55:00.086Z,9.37
2022-11-26T00:57:28.521Z,8.20
2022-11-26T00:59:57.740Z,8.43
2022-11-26T01:02:26.158Z,8.70
2022-11-26T01:04:54.483Z,9.30
2022-11-26T01:07:22.922Z,9.20
2022-11-26T01:09:51.047Z,10.13
2022-11-26T01:12:23.253Z,9.63
2022-11-26T01:14:51.827Z,9.33
2022-11-26T01:17:20.108Z,9.87
2022-11-26T01:19:48.276Z,8.93
2022-11-26T01:22:21.942Z,8.97
2022-11-26T01:24:50.536Z,9.83
2022-11-26T01:27:22.280Z,9.53
2022-11-26T01:29:50.460Z,9.00
2022-11-26T01:32:18.940Z,8.90
2022-11-26T01:34:47.563Z,8.63
2022-11-26T01:37:16.026Z,8.10
2022-11-26T01:39:44.084Z,8.67
2022-11-26T01:42:27.519Z,8.97
2022-11-26T01:44:56.078Z,8.10
2022-11-26T01:47:26.522Z,8.43
2022-11-26T01:50:40.892Z,8.17
2022-11-26T01:53:14.620Z,7.73
2022-11-26T01:55:48.250Z,8.87
2022-11-26T01:58:22.713Z,8.33
2022-11-26T02:00:52.762Z,8.47
2022-11-26T02:03:22.597Z,8.33
2022-11-26T02:06:00.271Z,8.60
2022-11-26T02:08:31.616Z,9.60
2022-11-26T02:11:00.543Z,8.13
2022-11-26T02:13:30.511Z,8.20
2022-11-26T02:16:05.168Z,8.13
2022-11-26T02:18:43.112Z,7.60
2022-11-26T02:21:21.715Z,8.43
2022-11-26T02:24:23.362Z,8.00
2022-11-26T02:27:27.876Z,8.33
2022-11-26T02:30:13.352Z,8.17
2022-11-26T02:33:00.440Z,8.60
2022-11-26T02:35:35.839Z,8.37
2022-11-26T02:38:08.088Z,8.20
2022-11-26T02:40:36.442Z,8.90
2022-11-26T02:43:06.395Z,9.73
2022-11-26T02:45:41.372Z,9.40
2022-11-26T02:48:16.034Z,10.43
2022-11-26T02:50:48.737Z,9.73
2022-11-26T02:53:21.474Z,9.47
2022-11-26T02:55:55.588Z,10.40
2022-11-26T02:58:23.740Z,10.00
2022-11-26T03:00:56.274Z,9.73
2022-11-26T03:03:28.632Z,10.10
2022-11-26T03:06:00.963Z,9.33
2022-11-26T03:08:30.624Z,8.87
2022-11-26T03:10:58.898Z,8.80
2022-11-26T03:13:28.667Z,9.47
2022-11-26T03:15:59.088Z,10.33
2022-11-26T03:18:29.404Z,9.17
2022-11-26T03:20:58.003Z,10.30
2022-11-26T03:23:26.958Z,9.40
2022-11-26T03:25:55.370Z,8.57
2022-11-26T03:28:23.892Z,8.07
2022-11-26T03:30:53.178Z,9.87
2022-11-26T03:33:23.240Z,10.43
2022-11-26T03:35:53.864Z,9.30
2022-11-26T03:38:23.030Z,10.03
2022-11-26T03:40:59.775Z,10.97
2022-11-26T03:43:28.492Z,11.63
2022-11-26T03:45:56.823Z,8.67
2022-11-26T03:48:27.755Z,7.87
2022-11-26T03:50:56.191Z,11.10
2022-11-26T03:53:27.264Z,7.50
2022-11-26T03:55:56.297Z,10.43
2022-11-26T03:58:26.079Z,8.67
2022-11-26T04:00:55.035Z,8.10
2022-11-26T04:03:23.553Z,8.33
2022-11-26T04:05:53.552Z,7.80
2022-11-26T04:08:22.277Z,8.00
2022-11-26T04:10:52.858Z,9.33
2022-11-26T04:13:24.453Z,9.03
2022-11-26T04:15:53.689Z,13.80
2022-11-26T04:18:21.900Z,12.87
2022-11-26T04:20:53.005Z,13.90
2022-11-26T04:23:23.083Z,13.00
2022-11-26T04:25:51.215Z,11.50
2022-11-26T04:28:22.151Z,8.67
2022-11-26T04:30:50.367Z,7.97
2022-11-26T04:33:19.146Z,7.10
2022-11-26T04:35:47.997Z,7.53
2022-11-26T04:38:17.871Z,7.77
2022-11-26T04:40:50.364Z,8.33
2022-11-26T04:43:18.572Z,11.43
2022-11-26T04:45:47.132Z,8.50
2022-11-26T04:48:15.844Z,8.90
2022-11-26T04:50:44.574Z,8.10
2022-11-26T04:53:12.812Z,7.23
2022-11-26T04:55:42.267Z,7.77
2022-11-26T04:58:12.007Z,8.63
2022-11-26T05:00:40.234Z,8.37
2022-11-26T05:03:08.518Z,11.37
2022-11-26T05:05:36.626Z,11.37
2022-11-26T05:08:05.384Z,9.37
2022-11-26T05:10:33.992Z,12.27
2022-11-26T05:13:02.560Z,9.80
2022-11-26T05:15:32.507Z,8.83
2022-11-26T05:18:03.771Z,9.30
2022-11-26T05:20:32.520Z,13.43
2022-11-26T05:23:01.234Z,8.57
2022-11-26T05:25:29.413Z,6.97
2022-11-26T05:27:58.320Z,9.03
2022-11-26T05:30:26.501Z,8.77
2022-11-26T05:32:56.307Z,8.17
2022-11-26T05:35:25.366Z,7.53
2022-11-26T05:37:54.359Z,8.63
2022-11-26T05:40:23.474Z,8.87
2022-11-26T05:42:51.808Z,11.17
2022-11-26T05:45:20.422Z,8.63
2022-11-26T05:47:48.432Z,9.33
2022-11-26T05:50:18.700Z,6.60
2022-11-26T05:52:47.472Z,4.93
2022-11-26T05:55:16.633Z,9.07
2022-11-26T05:57:44.993Z,5.57
2022-11-26T06:00:14.999Z,5.97
2022-11-26T06:02:43.608Z,6.80
2022-11-26T06:05:13.130Z,6.77
2022-11-26T06:07:45.065Z,10.33
2022-11-26T06:10:14.405Z,6.17
2022-11-26T06:12:42.783Z,8.63
2022-11-26T06:15:12.395Z,6.17
2022-11-26T06:17:40.485Z,6.63
2022-11-26T06:20:10.069Z,6.77
2022-11-26T06:22:44.208Z,8.30
2022-11-26T06:25:15.372Z,8.60
2022-11-26T06:27:44.133Z,6.37
2022-11-26T06:30:13.682Z,5.77
2022-11-26T06:32:42.239Z,6.17
2022-11-26T06:35:11.834Z,7.20
2022-11-26T06:37:40.291Z,5.90
2022-11-26T06:40:22.351Z,6.27
2022-11-26T06:42:51.263Z,6.40
2022-11-26T06:45:20.389Z,6.03
2022-11-26T06:47:51.818Z,5.60
2022-11-26T06:50:22.848Z,5.30
2022-11-26T06:52:53.227Z,5.03
2022-11-26T06:55:23.377Z,5.27
2022-11-26T06:57:52.571Z,5.40
2022-11-26T07:00:22.891Z,10.67
2022-11-26T07:02:51.573Z,6.77
2022-11-26T07:05:20.708Z,5.00
2022-11-26T07:07:49.245Z,7.00
2022-11-26T07:10:18.020Z,8.80
2022-11-26T07:12:48.515Z,9.43
2022-11-26T07:15:17.180Z,10.73
2022-11-26T07:17:45.770Z,10.47
2022-11-26T07:20:16.379Z,8.47
2022-11-26T07:22:48.366Z,10.00
2022-11-26T07:25:17.662Z,11.47
2022-11-26T07:27:50.667Z,10.97
2022-11-26T07:30:19.690Z,8.00
2022-11-26T07:32:48.658Z,12.03
2022-11-26T07:35:18.581Z,7.00
2022-11-26T07:37:46.764Z,8.20
2022-11-26T07:40:17.300Z,7.30
2022-11-26T07:42:52.953Z,7.73
2022-11-26T07:45:21.804Z,8.20
2022-11-26T07:47:50.285Z,7.47
2022-11-26T07:50:20.955Z,7.97
2022-11-26T07:52:49.606Z,6.93
2022-11-26T07:55:18.286Z,6.67
2022-11-26T07:57:48.234Z,6.87
2022-11-26T08:00:18.260Z,8.17
2022-11-26T08:02:46.434Z,7.53
2022-11-26T08:05:14.625Z,7.97
2022-11-26T08:07:43.060Z,6.80
2022-11-26T08:10:12.674Z,6.43
2022-11-26T08:12:41.439Z,6.27
2022-11-26T08:15:12.737Z,7.57
2022-11-26T08:17:42.727Z,5.20
2022-11-26T08:20:12.235Z,7.60
2022-11-26T08:22:40.600Z,12.63
2022-11-26T08:25:10.718Z,10.30
2022-11-26T08:27:39.307Z,11.17
2022-11-26T08:30:11.586Z,5.93
2022-11-26T08:32:41.477Z,7.83
2022-11-26T08:35:10.537Z,6.10
2022-11-26T08:37:39.191Z,7.20
2022-11-26T08:40:09.546Z,7.13
2022-11-26T08:42:37.959Z,6.70
2022-11-26T08:45:07.269Z,6.17
2022-11-26T08:47:35.851Z,6.27
2022-11-26T08:50:07.851Z,6.07
2022-11-26T08:52:36.333Z,6.33
2022-11-26T08:55:04.920Z,5.53
2022-11-26T08:57:35.238Z,5.80
2022-11-26T09:00:03.718Z,7.63
2022-11-26T09:02:32.563Z,7.73
2022-11-26T09:05:01.045Z,7.70
2022-11-26T09:07:32.083Z,10.57
2022-11-26T09:10:00.586Z,7.30
2022-11-26T09:12:29.219Z,7.10
2022-11-26T09:14:57.472Z,10.70
2022-11-26T09:17:25.924Z,13.03
2022-11-26T09:19:54.410Z,8.83
2022-11-26T09:22:22.801Z,6.50
2022-11-26T09:24:53.110Z,7.93
2022-11-26T09:27:21.376Z,8.17
2022-11-26T09:29:49.503Z,8.10
2022-11-26T09:32:29.699Z,7.00
2022-11-26T09:35:01.966Z,6.10
2022-11-26T09:37:30.580Z,5.77
2022-11-26T09:40:00.418Z,6.57
2022-11-26T09:42:43.149Z,6.20
2022-11-26T09:45:20.220Z,5.57
2022-11-26T09:47:53.781Z,6.37
2022-11-26T09:50:28.862Z,6.40
2022-11-26T09:53:01.810Z,6.53
2022-11-26T09:55:33.713Z,6.57
2022-11-26T09:58:11.713Z,6.70
2022-11-26T10:00:42.093Z,6.40
2022-11-26T10:03:18.831Z,6.80
2022-11-26T10:05:57.144Z,7.03
2022-11-26T10:08:57.915Z,7.83
2022-11-26T10:11:37.951Z,7.00
2022-11-26T10:14:18.945Z,8.47
2022-11-26T10:16:56.723Z,7.07
2022-11-26T10:19:37.099Z,7.03
2022-11-26T10:22:07.501Z,6.73
2022-11-26T10:24:42.095Z,8.57
2022-11-26T10:27:17.206Z,13.73
2022-11-26T10:29:50.223Z,9.60
2022-11-26T10:32:26.668Z,10.50
2022-11-26T10:34:58.150Z,7.90
2022-11-26T10:37:28.885Z,6.87
2022-11-26T10:40:07.822Z,12.93
2022-11-26T10:42:44.868Z,7.90
2022-11-26T10:45:20.198Z,8.93
2022-11-26T10:47:48.739Z,10.17
2022-11-26T10:50:46.599Z,17.53
2022-11-26T10:53:22.160Z,8.00
2022-11-26T10:55:52.399Z,7.03
2022-11-26T10:58:25.860Z,8.57
2022-11-26T11:01:00.930Z,8.00
2022-11-26T11:04:06.075Z,8.13
2022-11-26T11:06:36.278Z,9.47
2022-11-26T11:09:24.122Z,7.93
2022-11-26T11:12:16.415Z,8.50
2022-11-26T11:14:47.564Z,8.87
2022-11-26T11:17:31.561Z,9.50
2022-11-26T11:20:02.959Z,9.40
2022-11-26T11:22:31.173Z,9.83
2022-11-26T11:25:01.995Z,9.07
2022-11-26T11:27:41.202Z,10.83
2022-11-26T11:30:25.914Z,9.97
2022-11-26T11:32:57.761Z,10.03
2022-11-26T11:35:27.663Z,9.97
2022-11-26T11:37:59.715Z,10.37
2022-11-26T11:40:30.728Z,10.93
2022-11-26T11:43:03.245Z,11.07
2022-11-26T11:45:36.081Z,10.10
2022-11-26T11:48:18.007Z,9.73
2022-11-26T11:50:53.962Z,11.03
2022-11-26T11:53:34.745Z,9.27
2022-11-26T11:56:22.092Z,10.47
2022-11-26T11:59:18.294Z,10.50
2022-11-26T12:02:07.195Z,15.17
2022-11-26T12:05:05.123Z,13.70
2022-11-26T12:07:40.181Z,13.77
2022-11-26T12:10:15.374Z,16.23
2022-11-26T12:12:48.598Z,12.83
2022-11-26T12:15:26.571Z,12.47
2022-11-26T12:18:01.052Z,14.80
2022-11-26T12:20:35.426Z,14.40
2022-11-26T12:23:22.630Z,13.87
2022-11-26T12:25:55.619Z,12.60
2022-11-26T12:28:28.335Z,12.83
2022-11-26T12:31:03.460Z,14.30
2022-11-26T12:33:37.711Z,14.83
2022-11-26T12:36:15.887Z,14.17
2022-11-26T12:38:49.916Z,14.83
2022-11-26T12:41:24.180Z,16.40
2022-11-26T12:43:59.911Z,16.13
2022-11-26T12:46:38.523Z,15.50
2022-11-26T12:49:19.268Z,14.83
2022-11-26T12:51:53.659Z,15.00
2022-11-26T12:54:29.706Z,15.53
2022-11-26T12:57:03.973Z,18.93
2022-11-26T12:59:37.843Z,17.73
2022-11-26T13:02:20.759Z,16.87
2022-11-26T13:04:51.348Z,15.33
2022-11-26T13:07:31.874Z,17.03
2022-11-26T13:10:12.174Z,15.20
2022-11-26T13:12:48.710Z,16.17
2022-11-26T13:15:22.948Z,25.47
2022-11-26T13:17:53.792Z,14.80
2022-11-26T13:20:52.073Z,15.20
2022-11-26T13:23:35.405Z,15.90
2022-11-26T13:26:21.747Z,14.60
2022-11-26T13:29:24.110Z,15.20
2022-11-26T13:32:13.117Z,14.50
2022-11-26T13:35:02.682Z,15.27
2022-11-26T13:37:55.089Z,14.70
2022-11-26T13:40:58.693Z,15.17
2022-11-26T13:44:07.054Z,16.03
2022-11-26T13:46:39.469Z,15.40
2022-11-26T13:49:13.138Z,18.23
2022-11-26T13:51:48.130Z,22.10
2022-11-26T13:54:24.707Z,16.53
2022-11-26T13:57:01.610Z,17.40
2022-11-26T13:59:33.783Z,12.83
2022-11-26T14:02:44.670Z,12.10
2022-11-26T14:05:15.279Z,11.90
2022-11-26T14:07:45.991Z,13.00
2022-11-26T14:10:44.087Z,14.30
2022-11-26T14:13:14.158Z,15.07
2022-11-26T14:15:57.294Z,16.53
2022-11-26T14:19:00.752Z,17.57
2022-11-26T14:21:31.473Z,16.47
2022-11-26T14:24:02.252Z,16.53
2022-11-26T14:26:34.830Z,15.27
2022-11-26T14:29:13.290Z,18.07
2022-11-26T14:31:44.304Z,15.53
2022-11-26T14:34:18.989Z,15.63
2022-11-26T14:36:57.478Z,16.57
2022-11-26T14:39:26.429Z,16.07
2022-11-26T14:42:05.179Z,14.60
2022-11-26T14:44:34.712Z,15.83
2022-11-26T14:47:12.053Z,17.03
2022-11-26T14:49:43.157Z,16.20
2022-11-26T14:52:21.024Z,13.77
2022-11-26T14:54:52.937Z,16.07
2022-11-26T14:57:26.695Z,15.93
2022-11-26T15:00:00.345Z,16.30
2022-11-26T15:02:31.128Z,16.87
2022-11-26T15:05:01.929Z,15.43
2022-11-26T15:07:31.556Z,16.70
2022-11-26T15:10:05.543Z,16.70
2022-11-26T15:12:37.988Z,17.90
2022-11-26T15:15:07.596Z,18.23
2022-11-26T15:17:44.650Z,18.30
2022-11-26T15:20:17.385Z,16.37
2022-11-26T15:22:51.623Z,15.93
2022-11-26T15:25:22.318Z,16.77
2022-11-26T15:27:54.938Z,15.97
2022-11-26T15:30:25.023Z,16.93
2022-11-26T15:33:02.607Z,18.13
2022-11-26T15:35:33.418Z,18.50
2022-11-26T15:38:02.128Z,19.13
2022-11-26T15:40:34.071Z,19.33
2022-11-26T15:43:06.360Z,19.23
2022-11-26T15:45:39.852Z,18.83
2022-11-26T15:48:50.568Z,18.97
2022-11-26T15:51:13.421Z,17.87
2022-11-26T15:53:48.294Z,17.40
2022-11-26T15:56:19.656Z,18.30
2022-11-26T15:58:56.794Z,18.63
2022-11-26T16:01:28.350Z,20.77
2022-11-26T16:03:59.816Z,17.83
2022-11-26T16:06:34.022Z,18.17
2022-11-26T16:09:27.893Z,18.53
2022-11-26T16:12:01.266Z,18.23
2022-11-26T16:14:36.518Z,25.27
2022-11-26T16:17:08.762Z,24.30
2022-11-26T16:19:38.530Z,19.20
2022-11-26T16:22:10.432Z,17.67
2022-11-26T16:24:43.191Z,18.97
2022-11-26T16:27:27.766Z,19.03
2022-11-26T16:29:58.415Z,20.07
2022-11-26T16:32:27.211Z,18.23
2022-11-26T16:34:55.890Z,17.50
2022-11-26T16:37:26.347Z,17.07
2022-11-26T16:40:13.179Z,18.90
2022-11-26T16:42:41.814Z,18.63
2022-11-26T16:45:13.214Z,20.23
2022-11-26T16:47:45.096Z,22.17
2022-11-26T16:50:19.119Z,20.50
2022-11-26T16:52:47.662Z,20.63
2022-11-26T16:55:18.477Z,20.50
2022-11-26T16:57:51.139Z,21.07
2022-11-26T17:00:24.254Z,19.80
2022-11-26T17:02:53.054Z,26.37
2022-11-26T17:05:22.719Z,19.57
2022-11-26T17:07:55.204Z,20.47
2022-11-26T17:10:26.473Z,19.97
2022-11-26T17:12:54.541Z,20.00
2022-11-26T17:15:24.767Z,18.93
2022-11-26T17:17:56.351Z,19.37
2022-11-26T17:20:26.210Z,20.60
2022-11-26T17:22:56.249Z,20.20
2022-11-26T17:25:24.851Z,19.80
2022-11-26T17:27:52.890Z,22.40
2022-11-26T17:30:22.683Z,21.93
2022-11-26T17:32:52.849Z,22.27
2022-11-26T17:35:21.011Z,20.37
2022-11-26T17:37:50.911Z,19.23
2022-11-26T17:40:21.119Z,18.80
2022-11-26T17:42:50.258Z,20.43
2022-11-26T17:45:21.476Z,20.80
2022-11-26T17:47:51.607Z,19.60
2022-11-26T17:50:23.855Z,21.23
2022-11-26T17:52:53.278Z,20.27
2022-11-26T17:55:23.933Z,20.93
2022-11-26T17:57:52.630Z,19.50
2022-11-26T18:00:25.425Z,21.27
2022-11-26T18:02:56.430Z,22.53
2022-11-26T18:05:26.253Z,22.00
2022-11-26T18:07:54.927Z,23.87
2022-11-26T18:10:24.950Z,25.33
2022-11-26T18:12:56.530Z,24.03
2022-11-26T18:15:26.679Z,23.47
2022-11-26T18:17:57.332Z,24.87
2022-11-26T18:20:30.226Z,24.90
2022-11-26T18:23:01.902Z,23.90
2022-11-26T18:25:36.478Z,26.33
2022-11-26T18:28:06.796Z,29.87
2022-11-26T18:30:38.099Z,24.73
2022-11-26T18:33:07.868Z,22.20
2022-11-26T18:35:36.359Z,21.17
2022-11-26T18:38:07.807Z,22.90
2022-11-26T18:40:35.944Z,20.40
2022-11-26T18:43:04.328Z,22.40
2022-11-26T18:45:33.182Z,23.07
2022-11-26T18:48:03.359Z,22.30
2022-11-26T18:50:32.914Z,21.60
2022-11-26T18:53:01.392Z,18.87
2022-11-26T18:55:30.289Z,19.80
2022-11-26T18:57:58.723Z,21.87
2022-11-26T19:00:27.239Z,20.57
2022-11-26T19:02:55.571Z,21.40
2022-11-26T19:05:24.073Z,19.30
2022-11-26T19:07:53.920Z,18.70
2022-11-26T19:10:22.564Z,14.87
2022-11-26T19:12:50.989Z,16.27
2022-11-26T19:15:19.616Z,15.37
2022-11-26T19:17:47.846Z,16.67
2022-11-26T19:20:16.555Z,17.93
2022-11-26T19:22:45.508Z,23.57
2022-11-26T19:25:16.049Z,29.00
2022-11-26T19:27:45.103Z,28.67
2022-11-26T19:30:17.956Z,23.60
2022-11-26T19:32:46.171Z,24.00
2022-11-26T19:35:14.748Z,22.27
2022-11-26T19:37:43.210Z,18.77
2022-11-26T19:40:12.396Z,17.20
2022-11-26T19:42:42.166Z,18.40
2022-11-26T19:45:11.763Z,19.20
2022-11-26T19:47:40.353Z,18.80
2022-11-26T19:50:10.438Z,19.07
2022-11-26T19:52:38.936Z,17.10
2022-11-26T19:55:08.287Z,15.60
2022-11-26T19:57:36.768Z,17.03
2022-11-26T20:00:09.693Z,16.90
2022-11-26T20:02:38.664Z,18.97
2022-11-26T20:05:07.393Z,16.23
2022-11-26T20:07:36.505Z,16.77
2022-11-26T20:10:05.282Z,16.37
2022-11-26T20:12:33.803Z,14.83
2022-11-26T20:15:02.097Z,15.43
2022-11-26T20:17:34.262Z,15.57
2022-11-26T20:20:03.197Z,13.07
2022-11-26T20:22:34.509Z,14.77
2022-11-26T20:25:03.602Z,16.37
2022-11-26T20:27:34.424Z,12.17
2022-11-26T20:30:05.049Z,19.10
2022-11-26T20:32:34.943Z,13.43
2022-11-26T20:35:06.087Z,15.10
2022-11-26T20:37:35.212Z,14.20
2022-11-26T20:40:03.950Z,14.80
2022-11-26T20:42:33.943Z,12.40
2022-11-26T20:45:02.336Z,13.23
2022-11-26T20:47:30.874Z,13.00
2022-11-26T20:50:00.771Z,13.83
2022-11-26T20:52:29.747Z,14.43
2022-11-26T20:54:59.276Z,14.07
2022-11-26T20:57:27.760Z,12.80
2022-11-26T20:59:56.290Z,12.63
2022-11-26T21:02:27.990Z,13.83
2022-11-26T21:04:58.096Z,13.57
2022-11-26T21:07:30.053Z,13.67
2022-11-26T21:09:59.152Z,14.63
2022-11-26T21:12:29.229Z,14.80
2022-11-26T21:14:59.002Z,15.23
2022-11-26T21:17:28.151Z,15.10
2022-11-26T21:19:58.682Z,14.20
2022-11-26T21:22:29.416Z,13.83
2022-11-26T21:24:59.151Z,14.83
2022-11-26T21:27:30.052Z,14.67
2022-11-26T21:29:59.950Z,14.77
2022-11-26T21:32:28.507Z,15.30
2022-11-26T21:34:57.572Z,14.70
2022-11-26T21:37:29.274Z,14.97
2022-11-26T21:39:58.999Z,14.90
2022-11-26T21:42:27.338Z,14.80
2022-11-26T21:44:55.753Z,14.90
2022-11-26T21:47:24.579Z,15.90
2022-11-26T21:49:55.121Z,14.63
2022-11-26T21:52:23.599Z,16.23
2022-11-26T21:54:53.783Z,15.67
2022-11-26T21:57:23.596Z,16.07
2022-11-26T21:59:52.118Z,16.47
2022-11-26T22:02:20.684Z,16.40
2022-11-26T22:04:49.209Z,16.27
2022-11-26T22:07:20.719Z,16.43
2022-11-26T22:09:50.627Z,16.93
2022-11-26T22:12:20.791Z,16.37
2022-11-26T22:14:49.249Z,16.83
2022-11-26T22:17:17.679Z,15.63
2022-11-26T22:19:46.130Z,15.87
2022-11-26T22:22:14.936Z,16.50
2022-11-26T22:24:43.105Z,14.63
2022-11-26T22:27:12.485Z,15.23
2022-11-26T22:29:42.580Z,14.53
2022-11-26T22:32:11.467Z,15.23
2022-11-26T22:34:39.883Z,14.93
2022-11-26T22:37:08.110Z,14.43
2022-11-26T22:39:36.705Z,12.80
2022-11-26T22:42:05.636Z,13.20
2022-11-26T22:44:34.231Z,13.23
2022-11-26T22:47:03.801Z,13.63
2022-11-26T22:49:36.134Z,13.17
2022-11-26T22:52:04.394Z,13.93
2022-11-26T22:54:32.948Z,14.30
2022-11-26T22:57:01.092Z,14.30
2022-11-26T22:59:29.734Z,13.20
2022-11-26T23:01:58.192Z,13.57
2022-11-26T23:04:32.560Z,12.63
2022-11-26T23:07:01.124Z,11.97
2022-11-26T23:09:33.084Z,11.43
2022-11-26T23:12:07.299Z,11.73
2022-11-26T23:14:37.640Z,11.87
2022-11-26T23:17:07.238Z,11.67
2022-11-26T23:19:37.546Z,11.40
2022-11-26T23:22:06.173Z,11.97
2022-11-26T23:24:35.222Z,10.60
2022-11-26T23:27:03.881Z,11.07
2022-11-26T23:29:32.396Z,10.40
2022-11-26T23:32:00.805Z,10.90
2022-11-26T23:34:30.691Z,11.20
2022-11-26T23:37:00.943Z,10.53
2022-11-26T23:39:29.318Z,13.00
2022-11-26T23:41:57.647Z,10.50
2022-11-26T23:44:27.640Z,12.03
2022-11-26T23:46:56.085Z,12.40
2022-11-26T23:49:24.224Z,11.43
2022-11-26T23:51:52.632Z,11.07
2022-11-26T23:54:22.698Z,12.13
2022-11-26T23:56:51.489Z,11.63
2022-11-26T23:59:25.137Z,11.73
